SKCG/CTG METAR and TAF weather

Enter ICAO airport designator
Station Type Date Time Source
SKCG METAR 2019/09/21 05:00 UTC NOAA

SKCG 210500Z VRB02KT 8000 VCFG SCT018 26/26 A2987 RMK VCFG SE/S


Station Type Date Time Source
SKCG Decoded METAR 2019/09/21 05:00 UTC NOAA

Cartagena / Rafael Nunez, Colombia (SKCG) 10-27N 075-31W 12M
Sep 21, 2019 - 01:00 AM EDT / 2019.09.21 0500 UTC
Wind: Variable at 2 MPH (2 KT):0
Visibility: 4 mile(s):0
Sky conditions: partly cloudy
Weather: fog in the vicinity
Temperature: 78 F (26 C)
Dew Point: 78 F (26 C)
Relative Humidity: 100%
Pressure (altimeter): 29.87 in. Hg (1011 hPa)
ob: SKCG 210500Z VRB02KT 8000 VCFG SCT018 26/26 A2987 RMK VCFG SE/S
cycle: 5

Station Type Date Time Source
SKCG TAF 2019/09/21 06:41 UTC NOAA

TAF SKCG 210430Z 2106/2206 18006KT 9999 SCT017
TEMPO 2106/2108 SCT015TCU
TEMPO 2110/2112 5000 VCFG -RA SCT012TCU
BECMG 2117/2119 2508KT
TEMPO 2120/2122 6000 DZRA SCT015CB TX32/2118Z TN24/2111Z

Example: see airport list